Warning: Javascript must be enabled to use all the features on this page!


Page Loading - Please Wait...

Click to hideNews Bulletins

Peak Streamflow for California

Click to hide state-specific text

USGS 11143000 BIG SUR R NR BIG SUR CA

Monterey County, California
Hydrologic Unit Code 18060006
Latitude  36°14'45", Longitude 121°46'20" NAD27
Drainage area 46.5  square miles
Gage datum 240 feet above NGVD29
Output formats
Table
Graph
Tab-separated file
peakfq (watstore) format
Reselect output format
Water
Year
Date Gage
Height
(feet)
Stream-
flow
(cfs)
1950 1950-03-24   2141
1951 1950-11-19 9.80 4,200
1952 1952-01-14 9.906 4,150
1953 1952-12-07 8.52 2,920
1954 1954-01-17 5.94 1,050
1955 1954-12-02 5.18 630
1956 1955-12-23 11.05 5,220
1957 1957-02-24 7.43 2,010
1958 1958-04-02 11.56 5,680
1959 1959-09-19 6.22 1,170
1960 1960-02-01 7.72 2,280
1961 1960-12-01 5.45 760
1962 1962-02-15 8.80 3,160
1963 1963-02-01 11.23 5,400
1964 1964-01-20 6.48 1,470
1965 1965-01-06 7.37 2,100
1966 1965-11-17 5.73 918
1967 1966-12-06 10.30 4,510
1968 1968-01-30 6.25 1,230
1969 1969-01-26 9.53 3,820
1970 1970-01-16 9.50 3,790
1971 1970-11-29 6.80 1,600
1972 1971-12-25 6.23 1,220
1973 1973-02-11 8.36 2,790
1974 1974-03-02 7.57 2,100
1975 1975-02-02 8.37 2,780
1976 1976-02-29 4.99 496
1977 1977-01-02 4.78 415
1978 1978-01-05 14.30 10,700
1979 1978-11-21 6.78 1,510
1980 1980-01-13 9.27 3,670
1981 1981-01-27 7.76 2,330
1982 1982-01-05 9.63 4,030
1983 1982-12-22 9.25 3,670
1984 1983-12-25 7.25 1,730
1985 1985-02-08 8.06 2,460
1986 1986-02-17 9.80 4,280
1987 1987-02-13 8.56 2,960
1988 1987-12-06 5.50 451
1989 1988-12-24 7.05 1,560
1990 1990-02-16 6.80 1,360
1991 1991-03-04 7.96 2,370
1992 1992-02-14 7.66 2,090
1993 1993-01-14 9.25 3,400
1994 1994-02-19 6.78 1,100
1995 1995-03-10 11.71 6,690
1996 1996-02-19 9.07 3,000
1997 1997-01-01 10.58 5,000
1998 1998-02-03 11.64 6,590
1999 1999-02-09 8.35 2,180
2000 2000-02-14 10.18 4,440
2001 2001-03-04 7.62 1,500
2002 2001-12-02 8.31 2,140
2003 2002-12-16 9.47 3,500
2004 2004-02-25 8.02 1,850
2005 2005-03-22 8.50 2,340
2006 2005-12-31 9.99 4,190
2007 2007-02-10 6.39 636
2008 2008-01-04 8.93 2,840
2009 2009-03-04 7.85 1,690
2010 2009-10-13 10.64 5,090
2011 2011-03-24 10.38 4,720
2012 2012-01-21 7.20 1,150
2013 2012-12-02 10.51 4,900
2014 2014-03-01 6.30 587
2015 2015-02-08 7.70 1,560
2016 2016-03-06 8.74 2,620
2017 2017-01-10 12.34 5,070
2018 2018-03-22 9.57 2,350
2019 2019-01-17 9.74 2,490
2020 2019-12-02 7.93 1,350
?
  Peak Gage-Height Qualification Codes.
?
  Peak Streamflow Qualification Codes.